University Park Airport
KUNV : now visible

Airfield :











YOU CAN JOIN US ON...

 
LOGIN :

Register | Disclaimer

   EN    FR    IT 

 









Legend :    VFR   Marginal VFR   IFR   Intensive IFR   Very Intensive IFR
Visi :
Ceiling :
>= 8 km
>= 3000ft
5 to 8 km
1000 to 3000 ft
1500m to 5 km
500 to 1000 ft
800 to 1500m
200 to 500 ft
< 800m
< 200 ft
Symbols :   Thunderstorms  Fog  Heavy snow  Heavy precipitations  Wind > 20 kt






- Airport Elevation : 1239 ft


KUNV - University Park

CURRENT METAR :
  • 220153Z 16004KT 10SM SKC 14/09 A3002

EXPIRED METARs :
  • 220053Z 15006KT 10SM SKC 14/09 A3001
  • 212353Z 00000KT 10SM SKC 14/09 A3003
  • 212253Z 00000KT 10SM SKC 15/08 A3003

TAF KUNV
Valid from the 22 at 00:00 until the 23 at 00:00 UTC


212323Z 2200/2224 17006KT P6SM BKN250 WS017/15030KT
FM220500 15007KT 6SM BR OVC025 WS018/17035KT
FM220700 16008KT 5SM -DZ BR OVC013 WS020/18035KT
FM221500 16008G16KT 4SM RA BR OVC010
FM222200 24004KT P6SM OVC015



MET'MAP, your aeronautical weather chart ! - Copyright ORBIFLY December 2007 - Disclaimer

ORBIFLY MET'MAP TEAM :

Programming & Development : Alexandra Zaïnal
Concept & Development : Baudouin d'Aumeries
Co-Development & Prog : Marc-Olivier Méhu
Technical & hardware support : Manuel Goepfert

Contact : metmap@orbifly.com




SOURCES & CREDITS :

   NOAA       Earth
Advisory